createdAt,value
2023-08-18T00:04:50.352Z,8.70
2023-08-18T00:07:17.771Z,8.17
2023-08-18T00:09:45.136Z,8.30
2023-08-18T00:12:12.477Z,8.50
2023-08-18T00:14:39.819Z,6.60
2023-08-18T00:17:07.201Z,6.30
2023-08-18T00:19:34.884Z,7.50
2023-08-18T00:22:03.509Z,6.83
2023-08-18T00:24:30.793Z,8.17
2023-08-18T00:27:04.967Z,7.80
2023-08-18T00:29:47.305Z,5.10
2023-08-18T00:32:37.379Z,7.13
2023-08-18T00:35:04.874Z,9.03
2023-08-18T00:37:33.496Z,9.13
2023-08-18T00:40:00.801Z,8.73
2023-08-18T00:42:28.448Z,8.70
2023-08-18T00:44:55.839Z,8.83
2023-08-18T00:47:23.256Z,8.37
2023-08-18T00:49:51.609Z,9.50
2023-08-18T00:52:19.489Z,8.80
2023-08-18T00:54:50.658Z,8.23
2023-08-18T00:57:30.663Z,7.93
2023-08-18T01:00:11.315Z,8.03
2023-08-18T01:02:38.661Z,8.00
2023-08-18T01:05:06.125Z,7.20
2023-08-18T01:07:33.459Z,7.43
2023-08-18T01:10:02.602Z,8.07
2023-08-18T01:12:35.023Z,7.50
2023-08-18T01:15:17.386Z,7.80
2023-08-18T01:17:48.696Z,8.53
2023-08-18T01:20:16.349Z,8.73
2023-08-18T01:22:45.093Z,8.30
2023-08-18T01:25:36.406Z,7.13
2023-08-18T02:12:10.966Z,7.70
2023-08-18T02:14:43.223Z,7.10
2023-08-18T02:17:10.768Z,4.77
2023-08-18T02:19:38.068Z,6.60
2023-08-18T02:22:05.398Z,7.13
2023-08-18T02:24:38.933Z,7.30
2023-08-18T02:27:09.556Z,6.97
2023-08-18T02:29:57.681Z,6.50
2023-08-18T02:32:26.364Z,8.05
2023-08-18T02:34:53.924Z,7.43
2023-08-18T02:37:21.187Z,6.03
2023-08-18T02:39:49.213Z,7.00
2023-08-18T02:42:16.584Z,5.27
2023-08-18T02:44:44.098Z,7.07
2023-08-18T02:47:11.376Z,4.60
2023-08-18T02:49:39.995Z,7.10
2023-08-18T02:52:07.358Z,6.07
2023-08-18T02:54:53.854Z,6.73
2023-08-18T02:57:24.632Z,7.27
2023-08-18T03:00:12.372Z,5.30
2023-08-18T03:02:39.684Z,6.73
2023-08-18T03:05:08.834Z,6.23
2023-08-18T03:07:36.644Z,7.23
2023-08-18T03:10:03.997Z,7.10
2023-08-18T03:12:31.283Z,6.60
2023-08-18T04:50:20.062Z,7.20
2023-08-18T04:52:48.958Z,8.00
2023-08-18T04:55:16.244Z,8.10
2023-08-18T05:31:31.957Z,5.63
2023-08-18T05:34:00.675Z,7.20
2023-08-18T05:36:27.976Z,6.13
2023-08-18T05:38:55.242Z,6.00
2023-08-18T05:41:22.641Z,4.07
2023-08-18T05:44:01.928Z,5.83
2023-08-18T05:46:45.068Z,6.70
2023-08-18T05:49:14.190Z,5.33
2023-08-18T05:51:41.614Z,6.43
2023-08-18T05:54:11.492Z,5.83
2023-08-18T05:56:39.902Z,6.43
2023-08-18T05:59:07.172Z,5.83
2023-08-18T06:53:01.310Z,7.37
2023-08-18T06:55:32.825Z,6.13
2023-08-18T07:04:55.237Z,8.50
2023-08-18T07:07:22.538Z,8.03
2023-08-18T07:09:51.193Z,8.43
2023-08-18T07:12:19.740Z,7.60
2023-08-18T07:14:47.176Z,8.73
2023-08-18T07:17:14.622Z,8.33
2023-08-18T07:19:42.334Z,7.07
2023-08-18T07:22:09.952Z,6.60
2023-08-18T07:24:37.623Z,7.73
2023-08-18T07:27:28.765Z,7.43
2023-08-18T07:33:09.285Z,7.80
2023-08-18T07:35:36.834Z,7.80
2023-08-18T07:38:04.363Z,7.97
2023-08-18T07:40:32.038Z,7.27
2023-08-18T07:42:59.271Z,8.00
2023-08-18T07:45:34.288Z,7.77
2023-08-18T07:48:01.640Z,8.13
2023-08-18T07:50:29.156Z,9.17
2023-08-18T07:52:56.437Z,8.17
2023-08-18T07:55:33.068Z,6.87
2023-08-18T07:58:12.834Z,7.43
2023-08-18T08:03:53.907Z,8.33
2023-08-18T08:06:21.405Z,7.90
2023-08-18T08:08:48.853Z,7.50
2023-08-18T08:11:16.173Z,6.50
2023-08-18T08:13:43.662Z,9.93
2023-08-18T08:16:11.065Z,9.00
2023-08-18T08:18:38.517Z,7.30
2023-08-18T08:21:08.109Z,10.50
2023-08-18T08:23:35.508Z,10.43
2023-08-18T08:26:02.854Z,11.40
2023-08-18T08:28:30.214Z,12.67
2023-08-18T08:30:57.581Z,10.60
2023-08-18T08:33:25.066Z,11.97
2023-08-18T08:35:52.912Z,11.67
2023-08-18T08:38:21.636Z,11.40
2023-08-18T08:40:52.753Z,12.20
2023-08-18T08:43:20.596Z,13.37
2023-08-18T08:45:48.045Z,11.90
2023-08-18T08:48:19.947Z,14.07
2023-08-18T08:50:49.180Z,12.45
2023-08-18T08:53:19.651Z,11.43
2023-08-18T08:55:49.023Z,11.73
2023-08-18T08:58:16.698Z,11.53
2023-08-18T09:01:06.121Z,12.00
2023-08-18T09:07:21.471Z,9.93
2023-08-18T09:09:48.809Z,13.10
2023-08-18T09:12:17.451Z,8.03
2023-08-18T09:14:44.777Z,11.83
2023-08-18T09:17:42.163Z,10.95
2023-08-18T09:20:13.993Z,13.75
2023-08-18T09:22:45.655Z,10.07
2023-08-18T09:25:13.962Z,11.43
2023-08-18T09:27:45.105Z,12.02
2023-08-18T10:25:28.234Z,14.88
2023-08-18T10:27:55.751Z,14.63
2023-08-18T10:30:31.475Z,15.35
2023-08-18T10:32:59.852Z,14.88
2023-08-18T10:35:27.764Z,14.85
2023-08-18T10:37:55.639Z,15.55
2023-08-18T10:40:37.631Z,16.25
2023-08-18T10:50:11.221Z,16.77
2023-08-18T10:52:41.417Z,15.02
2023-08-18T10:55:09.149Z,11.10
2023-08-18T10:57:37.796Z,14.98
2023-08-18T11:22:12.624Z,15.63
2023-08-18T11:24:39.996Z,13.10
2023-08-18T11:27:07.458Z,16.50
2023-08-18T11:29:34.761Z,16.05
2023-08-18T11:32:04.440Z,17.20
2023-08-18T12:14:08.394Z,15.32
2023-08-18T12:16:35.754Z,15.88
2023-08-18T12:19:03.009Z,16.05
2023-08-18T12:21:39.850Z,14.95
2023-08-18T12:24:07.820Z,14.82
2023-08-18T12:26:35.779Z,16.42
2023-08-18T12:29:03.371Z,15.77
2023-08-18T12:38:30.476Z,16.15
2023-08-18T12:40:57.898Z,17.38
2023-08-18T12:43:25.404Z,13.98
2023-08-18T12:45:53.108Z,16.30
2023-08-18T12:48:20.628Z,17.77
2023-08-18T12:50:48.381Z,14.10
2023-08-18T12:53:16.042Z,13.48
2023-08-18T12:55:44.695Z,17.07
2023-08-18T12:58:12.064Z,16.67
2023-08-18T13:01:01.764Z,15.75
2023-08-18T13:07:18.833Z,13.25
2023-08-18T13:10:15.942Z,15.02
2023-08-18T13:12:45.097Z,13.20
2023-08-18T13:15:12.522Z,17.55
2023-08-18T13:17:40.034Z,15.05
2023-08-18T13:20:42.761Z,16.17
2023-08-18T13:23:10.131Z,14.90
2023-08-18T13:25:37.584Z,16.80
2023-08-18T13:37:58.488Z,16.02
2023-08-18T14:06:04.833Z,13.52
2023-08-18T14:08:32.161Z,15.85
2023-08-18T14:10:59.497Z,13.82
2023-08-18T14:13:26.736Z,14.57
2023-08-18T14:15:54.201Z,14.88
2023-08-18T14:18:28.106Z,14.73
2023-08-18T14:20:55.377Z,15.10
2023-08-18T14:23:24.035Z,12.75
2023-08-18T14:25:51.337Z,15.73
2023-08-18T14:28:30.643Z,15.10
2023-08-18T14:34:45.069Z,14.65
2023-08-18T14:37:12.398Z,12.15
2023-08-18T14:39:41.012Z,12.80
2023-08-18T14:42:08.296Z,11.32
2023-08-18T14:44:35.517Z,11.68
2023-08-18T14:47:02.778Z,13.77
2023-08-18T14:49:30.264Z,16.77
2023-08-18T14:51:57.555Z,14.63
2023-08-18T14:54:25.821Z,13.43
2023-08-18T14:56:55.887Z,13.15
2023-08-18T15:56:46.927Z,16.85
2023-08-18T16:44:56.541Z,15.05
2023-08-18T17:07:51.665Z,15.45
2023-08-18T17:10:19.133Z,19.52
2023-08-18T17:12:46.368Z,17.33
2023-08-18T17:15:13.650Z,17.85
2023-08-18T17:17:40.907Z,17.80
2023-08-18T17:20:08.796Z,16.30
2023-08-18T17:22:36.049Z,17.60
2023-08-18T17:25:04.812Z,16.90
2023-08-18T17:27:32.370Z,17.92
2023-08-18T17:29:59.792Z,17.17
2023-08-18T17:32:36.303Z,15.82
2023-08-18T17:35:03.618Z,18.60
2023-08-18T17:37:31.145Z,17.75
2023-08-18T17:39:58.600Z,17.92
2023-08-18T17:45:35.939Z,17.25
2023-08-18T17:48:41.044Z,15.30
2023-08-18T17:51:11.394Z,17.52
2023-08-18T17:53:39.171Z,16.85
2023-08-18T17:56:06.762Z,18.10
2023-08-18T17:58:35.775Z,19.23
2023-08-18T18:01:03.268Z,18.13
2023-08-18T18:03:30.845Z,13.95
2023-08-18T18:05:58.232Z,16.50
2023-08-18T18:08:25.544Z,15.35
2023-08-18T18:10:52.894Z,16.70
2023-08-18T18:13:20.156Z,18.60
2023-08-18T18:15:48.854Z,18.42
2023-08-18T18:22:12.808Z,16.77
2023-08-18T18:24:41.489Z,17.35
2023-08-18T18:27:08.805Z,17.92
2023-08-18T18:29:36.210Z,16.98
2023-08-18T18:39:15.030Z,14.52
2023-08-18T18:41:42.623Z,17.63
2023-08-18T18:44:10.242Z,18.27
2023-08-18T18:46:37.524Z,16.30
2023-08-18T18:49:25.382Z,16.10
2023-08-18T18:51:52.942Z,15.23
2023-08-18T18:54:22.264Z,16.50
2023-08-18T18:56:50.139Z,16.65
2023-08-18T19:02:55.769Z,16.73
2023-08-18T19:05:23.177Z,14.25
2023-08-18T19:07:50.479Z,15.82
2023-08-18T19:10:19.177Z,14.50
2023-08-18T19:12:46.453Z,15.80
2023-08-18T19:15:13.799Z,14.35
2023-08-18T19:17:50.213Z,15.85
2023-08-18T19:20:25.202Z,15.70
2023-08-18T19:22:52.584Z,16.55
2023-08-18T19:25:21.209Z,15.52
2023-08-18T19:34:34.855Z,15.75
2023-08-18T19:37:02.319Z,16.77
2023-08-18T19:39:30.662Z,17.35
2023-08-18T19:41:59.434Z,17.10
2023-08-18T19:44:26.832Z,16.75
2023-08-18T20:09:36.812Z,16.65
2023-08-18T20:12:04.316Z,16.42
2023-08-18T20:14:31.627Z,16.48
2023-08-18T20:17:04.324Z,16.83
2023-08-18T20:19:31.666Z,17.40
2023-08-18T20:21:58.961Z,18.65
2023-08-18T20:24:26.492Z,20.20
2023-08-18T20:33:42.076Z,15.93
2023-08-18T20:36:09.498Z,17.52
2023-08-18T20:38:38.006Z,19.33
2023-08-18T20:41:05.563Z,18.58
2023-08-18T20:43:32.913Z,19.73
2023-08-18T20:46:00.498Z,18.42
2023-08-18T20:48:27.835Z,17.77
2023-08-18T20:50:56.516Z,18.30
2023-08-18T20:53:23.883Z,18.60
2023-08-18T20:56:14.099Z,19.75
2023-08-18T20:59:09.366Z,19.83
2023-08-18T21:01:58.966Z,19.77
2023-08-18T21:11:25.630Z,20.55
2023-08-18T21:13:53.038Z,20.67
2023-08-18T21:16:20.414Z,19.10
2023-08-18T21:18:48.055Z,20.73
2023-08-18T21:21:15.357Z,19.95
2023-08-18T21:23:42.643Z,19.70
2023-08-18T21:26:30.580Z,20.67
2023-08-18T21:32:07.705Z,19.75
2023-08-18T21:34:35.085Z,20.45
2023-08-18T21:37:02.371Z,19.58
2023-08-18T21:39:29.643Z,20.52
2023-08-18T21:41:58.301Z,19.40
2023-08-18T21:44:30.883Z,18.40
2023-08-18T21:46:58.266Z,19.88
2023-08-18T21:49:25.534Z,18.08
2023-08-18T21:51:52.889Z,19.88
2023-08-18T21:54:35.228Z,21.42
2023-08-18T21:57:24.755Z,21.85
2023-08-18T22:03:04.404Z,20.27
2023-08-18T22:31:23.107Z,22.92
2023-08-18T22:33:50.465Z,21.88
2023-08-18T22:36:17.719Z,21.35
2023-08-18T22:38:45.181Z,23.17
2023-08-18T22:41:12.508Z,23.38
2023-08-18T22:43:39.769Z,23.23
2023-08-18T22:46:12.695Z,22.33
2023-08-18T22:48:41.345Z,22.08
2023-08-18T22:51:15.832Z,21.95
2023-08-18T22:53:43.108Z,24.38
2023-08-18T22:56:29.120Z,22.17
2023-08-18T23:31:28.497Z,27.77
2023-08-18T23:33:56.367Z,24.27
2023-08-18T23:36:24.022Z,19.83
2023-08-18T23:38:51.395Z,22.85
2023-08-18T23:41:18.860Z,23.65
2023-08-18T23:43:46.285Z,25.10
2023-08-18T23:46:13.670Z,26.70
2023-08-18T23:48:42.959Z,24.85
2023-08-18T23:51:10.344Z,21.35
2023-08-18T23:53:37.904Z,22.63
2023-08-18T23:56:05.321Z,25.08
2023-08-18T23:58:38.407Z,23.42
